Buffalo, Iowa
Current Conditions -  °F | °C
As of 8:52 AM on Sunday 21 Dec 2014 (Local Time) from KMLI Reporting Station
Haze Haze  
Wind Chill: 30°   Ceiling: 3100
Heat Index: 37°   Visibility: 6mi
Dew Point: 33°   Wind: 9mph
Humidity: 86%   Direction: 170°S
Pressure: 30.11"   Gusts: NA
Location:  41.46°N, 90.72°W
Report Text: KMLI 211452Z 17008KT 6SM BR OVC031 03/01 A3011 RMK AO2 SLP201 T00280006 58005
Loading
Personal Weather Stations






























Interactive Weather Map New forecast layout! Learn more

10-Day Weather Forecast

Advertisements
Track Severe Weather on mobile